Accueil
METAR-TAF:

Aéroports :

Carcassonne, France

Aéroport de Carcassonne Salvaza

latitude: 43-13N, longitude: 002-19E, altitude: 130 m

Observation

Le bulletin a été fait il y a 36 minutes, à 23:30 UTC
Vent 2 kt de direction variable
Température 12°C
Humidité 82%
Pression 1023 hPa
Visibilité 10 km ou plus
pas de nuages en-dessous de 1500 mètres et pas de cumulonimbus.

METAR: LFMK 262330Z AUTO VRB02KT CAVOK 12/09 Q1023

Heure: 02:06 (00:06 UTC)

Prévision

Le bulletin a été fait il y a 10 heures et 6 minutes, à 14:00 UTC
Prévision valable du 26 à 15 UTC au 27 à 15 UTC
Vent 10 kt de ouest/nord-ouest
Visibilité 10 km ou plus
pas de nuages en-dessous de 1500 mètres et pas de cumulonimbus.

TAF: LFMK 261400Z 2615/2715 29010KT CAVOK

METAR-TAF

Observations et prévisions météorologiques de plus de 4000 aéroports (messages METAR et TAF).

Les stations disponibles sont représentées par des disques jaunes et rouges sur la carte.

Passer la souris dessus pour voir le nom de la station.

Cliquer dessus pour voir les observations et prévisions météorologiques.

Pour changer de carte: cliquez sur les boutons verts avec une croix noire pour zoomer, sur le bouton vert avec un tiret pour effectuer un zoom arrière, ou sur les flèches vertes pour les cartes adjacentes.


METAR-TAF: